03:16
Airports
History
Links
Donate
Help keep this website running!
PayPal
Bitcoin
This page is community maintained. The information is intended for PC simulator navigation or reference.
Always use approved charts for navigation.
06S
Acme Field
Acme Field (06S)
Deming, Washington, United States (98244)
4
Lat/Lng:48° 42' 34.41" N / 122° 10' 39.57" W
48.709558 / -122.177657
Elevation:301'ft / 92mMSL
ID / ICAO:06S
Runways:1
Longest:36-18
Grass 435m / 1,426ft
Nearby Weather02:53 GMT 2017-09-21
Nearby weather at KBLI, Bellingham Intl located 17.4 nautical miles from 06S
Altimeter: 29.77
Visibility: 10.0 statute miles
Wind: 0 knots (from 000°)
Temp: 11°c / 52°f
Humidity: 87.5%

METAR: KBLI 210253Z 00000KT 10SM BKN090 BKN110 11/09 A2977 RMK AO2 SLP087 T01060089 51013

(Powered by phpweather)
Nearby VORs <50NM
Nearby NDBs
Runway 36 / 18
Dimensions:434.5 x 22.9m 1426' x 75'ft
Surface:Grass
Runway 36 [A]Runway 18 [B]
Heading:020°TH 200°TH
Lat:
Lng:
48° 42' 27.95"N
122° 10' 43.32"W
48° 42' 40.86"N
122° 10' 35.81"W
User Notes and Comments
48° 42' 34.41" N / 122° 10' 39.57" W
Distance To
Airport ID:
Nearby Airports
(R) Acme Field 0.0 NM
WA12 W 270°
(R) Floathaven Airstrip 8.1 NM
WA90 W 281°
(R) Riverside 9.5 NM
4WA8 NNW 335°
(R) Kendall Airstrip 14.5 NM
WN08 N 11°
4 Israels Farm 14.5 NM
WA56 SSE 164°
(C) Bellingham Intl 17.4 NM
KBLI ( WX ) WNW 289°
(R) Bayview Farms 18.5 NM
WN51 SW 225°
VFR Chart
Flight Planning at SkyVector.com